Terminal Aerodrome Forecast
Issued by NWS

Home | Current Version | Previous Version | Text Only | Print | Product List | Glossary On
Versions: 1 2 3 4 5 6 7 8 9 10 11 12 13 14 15 16 17 18 19
000
FTUS43 KLSX 241400 AAA
TAFUIN
TAF AMD
KUIN 241412Z 2414/2512 14012KT P6SM BKN050
      TEMPO 2415/2417 4SM -SHRA OVC035
     FM241800 17015G25KT P6SM BKN040
     FM250000 15014KT 6SM -SHRA VCTS BKN035CB
     FM250700 18012KT P6SM BKN020=

USA.gov is the U.S. government's official web portal to all federal, state and local government web resources and services.